sensor_id;sensor_type;location;lat;lon;timestamp;P1;durP1;ratioP1;P2;durP2;ratioP2
56653;SDS011;45096;52.302;4.634;2022-07-09T00:00:31;7.15;;;3.22;;
56653;SDS011;45096;52.302;4.634;2022-07-09T00:02:57;4.63;;;3.50;;
56653;SDS011;45096;52.302;4.634;2022-07-09T00:05:22;3.88;;;3.25;;
56653;SDS011;45096;52.302;4.634;2022-07-09T00:07:48;3.03;;;2.83;;
56653;SDS011;45096;52.302;4.634;2022-07-09T00:10:13;3.08;;;2.88;;
56653;SDS011;45096;52.302;4.634;2022-07-09T00:12:38;4.90;;;3.40;;
56653;SDS011;45096;52.302;4.634;2022-07-09T00:15:04;2.90;;;2.75;;
56653;SDS011;45096;52.302;4.634;2022-07-09T00:17:32;3.72;;;3.30;;
56653;SDS011;45096;52.302;4.634;2022-07-09T00:19:57;2.90;;;2.60;;
56653;SDS011;45096;52.302;4.634;2022-07-09T00:22:22;5.00;;;2.90;;
56653;SDS011;45096;52.302;4.634;2022-07-09T00:24:48;5.03;;;3.20;;
56653;SDS011;45096;52.302;4.634;2022-07-09T00:27:13;4.93;;;2.80;;
56653;SDS011;45096;52.302;4.634;2022-07-09T00:29:39;2.97;;;2.78;;
56653;SDS011;45096;52.302;4.634;2022-07-09T00:32:04;3.42;;;2.78;;
56653;SDS011;45096;52.302;4.634;2022-07-09T00:34:31;3.25;;;2.80;;
56653;SDS011;45096;52.302;4.634;2022-07-09T00:36:57;3.88;;;2.92;;
56653;SDS011;45096;52.302;4.634;2022-07-09T00:39:22;3.38;;;3.08;;
56653;SDS011;45096;52.302;4.634;2022-07-09T00:41:47;2.67;;;2.45;;
56653;SDS011;45096;52.302;4.634;2022-07-09T00:44:13;4.32;;;2.92;;
56653;SDS011;45096;52.302;4.634;2022-07-09T00:46:38;3.72;;;3.42;;
56653;SDS011;45096;52.302;4.634;2022-07-09T00:49:04;2.60;;;2.50;;
56653;SDS011;45096;52.302;4.634;2022-07-09T00:51:30;3.22;;;2.90;;
56653;SDS011;45096;52.302;4.634;2022-07-09T00:53:56;3.38;;;3.08;;
56653;SDS011;45096;52.302;4.634;2022-07-09T00:56:22;2.58;;;2.47;;
56653;SDS011;45096;52.302;4.634;2022-07-09T00:58:48;3.03;;;2.75;;
56653;SDS011;45096;52.302;4.634;2022-07-09T01:01:13;3.60;;;3.10;;
56653;SDS011;45096;52.302;4.634;2022-07-09T01:03:39;2.72;;;2.53;;
56653;SDS011;45096;52.302;4.634;2022-07-09T01:06:04;2.92;;;2.63;;
56653;SDS011;45096;52.302;4.634;2022-07-09T01:08:31;2.88;;;2.78;;
56653;SDS011;45096;52.302;4.634;2022-07-09T01:10:56;2.88;;;2.35;;
56653;SDS011;45096;52.302;4.634;2022-07-09T01:13:22;3.63;;;2.42;;
56653;SDS011;45096;52.302;4.634;2022-07-09T01:15:47;3.30;;;2.70;;
56653;SDS011;45096;52.302;4.634;2022-07-09T01:18:13;3.05;;;2.85;;
56653;SDS011;45096;52.302;4.634;2022-07-09T01:20:39;2.55;;;2.35;;
56653;SDS011;45096;52.302;4.634;2022-07-09T01:23:05;3.67;;;2.90;;
56653;SDS011;45096;52.302;4.634;2022-07-09T01:25:31;2.90;;;2.70;;
56653;SDS011;45096;52.302;4.634;2022-07-09T01:27:59;2.90;;;2.65;;
56653;SDS011;45096;52.302;4.634;2022-07-09T01:30:25;2.90;;;2.70;;
56653;SDS011;45096;52.302;4.634;2022-07-09T01:32:51;2.90;;;2.70;;
56653;SDS011;45096;52.302;4.634;2022-07-09T01:35:16;2.75;;;2.63;;
56653;SDS011;45096;52.302;4.634;2022-07-09T01:37:43;3.13;;;2.92;;
56653;SDS011;45096;52.302;4.634;2022-07-09T01:40:09;3.45;;;3.15;;
56653;SDS011;45096;52.302;4.634;2022-07-09T01:42:35;3.58;;;2.90;;
56653;SDS011;45096;52.302;4.634;2022-07-09T01:45:01;3.17;;;2.97;;
56653;SDS011;45096;52.302;4.634;2022-07-09T01:47:26;3.05;;;2.78;;
56653;SDS011;45096;52.302;4.634;2022-07-09T01:49:51;5.18;;;3.47;;
56653;SDS011;45096;52.302;4.634;2022-07-09T01:52:17;3.55;;;3.08;;
56653;SDS011;45096;52.302;4.634;2022-07-09T01:54:44;2.83;;;2.53;;
56653;SDS011;45096;52.302;4.634;2022-07-09T01:57:09;2.90;;;2.70;;
56653;SDS011;45096;52.302;4.634;2022-07-09T01:59:35;3.30;;;3.00;;
56653;SDS011;45096;52.302;4.634;2022-07-09T02:02:00;2.80;;;2.33;;
56653;SDS011;45096;52.302;4.634;2022-07-09T02:04:25;4.22;;;2.80;;
56653;SDS011;45096;52.302;4.634;2022-07-09T02:06:51;2.70;;;2.60;;
56653;SDS011;45096;52.302;4.634;2022-07-09T02:09:16;2.75;;;2.55;;
56653;SDS011;45096;52.302;4.634;2022-07-09T02:11:43;3.05;;;2.80;;
56653;SDS011;45096;52.302;4.634;2022-07-09T02:14:08;2.90;;;2.65;;
56653;SDS011;45096;52.302;4.634;2022-07-09T02:16:34;2.90;;;2.55;;
56653;SDS011;45096;52.302;4.634;2022-07-09T02:18:59;2.25;;;2.15;;
56653;SDS011;45096;52.302;4.634;2022-07-09T02:21:24;2.97;;;2.65;;
56653;SDS011;45096;52.302;4.634;2022-07-09T02:23:50;2.03;;;1.92;;
56653;SDS011;45096;52.302;4.634;2022-07-09T02:26:15;2.22;;;2.13;;
56653;SDS011;45096;52.302;4.634;2022-07-09T02:28:42;2.13;;;1.95;;
56653;SDS011;45096;52.302;4.634;2022-07-09T02:31:07;2.92;;;2.47;;
56653;SDS011;45096;52.302;4.634;2022-07-09T02:33:33;2.53;;;2.33;;
56653;SDS011;45096;52.302;4.634;2022-07-09T02:35:58;2.60;;;2.40;;
56653;SDS011;45096;52.302;4.634;2022-07-09T02:38:23;2.22;;;2.13;;
56653;SDS011;45096;52.302;4.634;2022-07-09T02:40:49;2.40;;;2.20;;
56653;SDS011;45096;52.302;4.634;2022-07-09T02:43:14;2.35;;;2.00;;
56653;SDS011;45096;52.302;4.634;2022-07-09T02:45:41;2.00;;;1.90;;
56653;SDS011;45096;52.302;4.634;2022-07-09T02:48:06;2.33;;;2.22;;
56653;SDS011;45096;52.302;4.634;2022-07-09T02:50:32;2.38;;;2.15;;
56653;SDS011;45096;52.302;4.634;2022-07-09T02:52:57;2.85;;;2.08;;
56653;SDS011;45096;52.302;4.634;2022-07-09T02:55:22;2.13;;;2.03;;
56653;SDS011;45096;52.302;4.634;2022-07-09T02:57:48;2.25;;;2.15;;
56653;SDS011;45096;52.302;4.634;2022-07-09T03:00:13;1.90;;;1.80;;
56653;SDS011;45096;52.302;4.634;2022-07-09T03:02:40;2.40;;;2.17;;
56653;SDS011;45096;52.302;4.634;2022-07-09T03:05:06;2.40;;;2.30;;
56653;SDS011;45096;52.302;4.634;2022-07-09T03:07:32;2.45;;;2.28;;
56653;SDS011;45096;52.302;4.634;2022-07-09T03:09:57;2.33;;;2.22;;
56653;SDS011;45096;52.302;4.634;2022-07-09T03:12:22;2.20;;;2.10;;
56653;SDS011;45096;52.302;4.634;2022-07-09T03:14:48;1.95;;;1.85;;
56653;SDS011;45096;52.302;4.634;2022-07-09T03:17:13;2.03;;;1.85;;
56653;SDS011;45096;52.302;4.634;2022-07-09T03:19:40;2.28;;;2.05;;
56653;SDS011;45096;52.302;4.634;2022-07-09T03:22:05;2.47;;;1.58;;
56653;SDS011;45096;52.302;4.634;2022-07-09T03:24:31;1.70;;;1.63;;
56653;SDS011;45096;52.302;4.634;2022-07-09T03:26:56;1.80;;;1.70;;
56653;SDS011;45096;52.302;4.634;2022-07-09T03:29:21;2.00;;;1.80;;
56653;SDS011;45096;52.302;4.634;2022-07-09T03:31:47;2.25;;;2.00;;
56653;SDS011;45096;52.302;4.634;2022-07-09T03:34:12;1.73;;;1.35;;
56653;SDS011;45096;52.302;4.634;2022-07-09T03:36:39;1.85;;;1.75;;
56653;SDS011;45096;52.302;4.634;2022-07-09T03:39:04;1.63;;;1.50;;
56653;SDS011;45096;52.302;4.634;2022-07-09T03:41:29;2.38;;;1.60;;
56653;SDS011;45096;52.302;4.634;2022-07-09T03:43:55;1.67;;;1.60;;
56653;SDS011;45096;52.302;4.634;2022-07-09T03:46:20;1.60;;;1.60;;
56653;SDS011;45096;52.302;4.634;2022-07-09T03:48:46;2.60;;;1.73;;
56653;SDS011;45096;52.302;4.634;2022-07-09T03:51:11;2.13;;;1.70;;
56653;SDS011;45096;52.302;4.634;2022-07-09T03:53:38;1.73;;;1.63;;
56653;SDS011;45096;52.302;4.634;2022-07-09T03:56:03;2.25;;;1.70;;
56653;SDS011;45096;52.302;4.634;2022-07-09T03:58:29;1.80;;;1.70;;
56653;SDS011;45096;52.302;4.634;2022-07-09T04:00:55;1.85;;;1.75;;
56653;SDS011;45096;52.302;4.634;2022-07-09T04:03:20;1.70;;;1.70;;
56653;SDS011;45096;52.302;4.634;2022-07-09T04:05:45;1.67;;;1.60;;
56653;SDS011;45096;52.302;4.634;2022-07-09T04:08:11;1.42;;;1.42;;
56653;SDS011;45096;52.302;4.634;2022-07-09T04:10:37;1.95;;;1.85;;
56653;SDS011;45096;52.302;4.634;2022-07-09T04:13:03;1.55;;;1.45;;
56653;SDS011;45096;52.302;4.634;2022-07-09T04:15:28;1.60;;;1.50;;
56653;SDS011;45096;52.302;4.634;2022-07-09T04:17:54;1.85;;;1.75;;
56653;SDS011;45096;52.302;4.634;2022-07-09T04:20:19;1.30;;;1.30;;
56653;SDS011;45096;52.302;4.634;2022-07-09T04:22:44;1.70;;;1.60;;
56653;SDS011;45096;52.302;4.634;2022-07-09T04:25:10;1.85;;;1.75;;
56653;SDS011;45096;52.302;4.634;2022-07-09T04:27:36;1.58;;;1.58;;
56653;SDS011;45096;52.302;4.634;2022-07-09T04:30:02;1.20;;;1.20;;
56653;SDS011;45096;52.302;4.634;2022-07-09T04:32:28;1.40;;;1.30;;
56653;SDS011;45096;52.302;4.634;2022-07-09T04:34:53;1.40;;;1.30;;
56653;SDS011;45096;52.302;4.634;2022-07-09T04:37:18;1.63;;;1.52;;
56653;SDS011;45096;52.302;4.634;2022-07-09T04:39:44;1.40;;;1.40;;
56653;SDS011;45096;52.302;4.634;2022-07-09T04:42:09;1.67;;;1.40;;
56653;SDS011;45096;52.302;4.634;2022-07-09T04:44:36;1.40;;;1.40;;
56653;SDS011;45096;52.302;4.634;2022-07-09T04:47:01;2.00;;;1.80;;
56653;SDS011;45096;52.302;4.634;2022-07-09T04:49:27;2.95;;;2.17;;
56653;SDS011;45096;52.302;4.634;2022-07-09T04:51:52;1.65;;;1.55;;
56653;SDS011;45096;52.302;4.634;2022-07-09T04:54:18;1.10;;;1.10;;
56653;SDS011;45096;52.302;4.634;2022-07-09T04:56:43;1.95;;;1.85;;
56653;SDS011;45096;52.302;4.634;2022-07-09T04:59:08;1.48;;;1.48;;
56653;SDS011;45096;52.302;4.634;2022-07-09T05:01:35;1.33;;;1.13;;
56653;SDS011;45096;52.302;4.634;2022-07-09T05:04:00;1.50;;;1.40;;
56653;SDS011;45096;52.302;4.634;2022-07-09T05:06:26;1.52;;;1.50;;
56653;SDS011;45096;52.302;4.634;2022-07-09T05:08:51;1.70;;;1.60;;
56653;SDS011;45096;52.302;4.634;2022-07-09T05:11:16;3.40;;;1.77;;
56653;SDS011;45096;52.302;4.634;2022-07-09T05:13:42;1.58;;;1.48;;
56653;SDS011;45096;52.302;4.634;2022-07-09T05:16:07;2.88;;;2.20;;
56653;SDS011;45096;52.302;4.634;2022-07-09T05:18:34;1.73;;;1.73;;
56653;SDS011;45096;52.302;4.634;2022-07-09T05:21:00;1.52;;;1.42;;
56653;SDS011;45096;52.302;4.634;2022-07-09T05:23:26;1.50;;;1.50;;
56653;SDS011;45096;52.302;4.634;2022-07-09T05:25:51;2.13;;;2.03;;
56653;SDS011;45096;52.302;4.634;2022-07-09T05:28:16;2.83;;;1.90;;
56653;SDS011;45096;52.302;4.634;2022-07-09T05:30:42;1.55;;;1.55;;
56653;SDS011;45096;52.302;4.634;2022-07-09T05:33:07;2.40;;;2.20;;
56653;SDS011;45096;52.302;4.634;2022-07-09T05:35:34;1.90;;;1.80;;
56653;SDS011;45096;52.302;4.634;2022-07-09T05:37:59;1.80;;;1.70;;
56653;SDS011;45096;52.302;4.634;2022-07-09T05:40:25;2.85;;;2.13;;
56653;SDS011;45096;52.302;4.634;2022-07-09T05:42:50;1.83;;;1.70;;
56653;SDS011;45096;52.302;4.634;2022-07-09T05:45:16;1.75;;;1.65;;
56653;SDS011;45096;52.302;4.634;2022-07-09T05:47:41;2.33;;;2.13;;
56653;SDS011;45096;52.302;4.634;2022-07-09T05:50:07;1.55;;;1.50;;
56653;SDS011;45096;52.302;4.634;2022-07-09T05:52:34;2.10;;;2.00;;
56653;SDS011;45096;52.302;4.634;2022-07-09T05:54:59;1.92;;;1.83;;
56653;SDS011;45096;52.302;4.634;2022-07-09T05:57:24;2.13;;;1.63;;
56653;SDS011;45096;52.302;4.634;2022-07-09T05:59:50;1.90;;;1.80;;
56653;SDS011;45096;52.302;4.634;2022-07-09T06:02:15;1.70;;;1.60;;
56653;SDS011;45096;52.302;4.634;2022-07-09T06:04:41;2.10;;;2.00;;
56653;SDS011;45096;52.302;4.634;2022-07-09T06:07:06;2.20;;;2.00;;
56653;SDS011;45096;52.302;4.634;2022-07-09T06:09:33;2.45;;;1.83;;
56653;SDS011;45096;52.302;4.634;2022-07-09T06:11:58;1.77;;;1.67;;
56653;SDS011;45096;52.302;4.634;2022-07-09T06:14:24;1.77;;;1.67;;
56653;SDS011;45096;52.302;4.634;2022-07-09T06:16:49;1.83;;;1.73;;
56653;SDS011;45096;52.302;4.634;2022-07-09T06:19:14;3.05;;;1.40;;
56653;SDS011;45096;52.302;4.634;2022-07-09T06:21:40;1.50;;;1.50;;
56653;SDS011;45096;52.302;4.634;2022-07-09T06:24:05;2.35;;;1.95;;
56653;SDS011;45096;52.302;4.634;2022-07-09T06:26:32;2.25;;;1.60;;
56653;SDS011;45096;52.302;4.634;2022-07-09T06:28:57;1.50;;;1.40;;
56653;SDS011;45096;52.302;4.634;2022-07-09T06:31:23;2.28;;;1.50;;
56653;SDS011;45096;52.302;4.634;2022-07-09T06:33:49;2.25;;;1.52;;
56653;SDS011;45096;52.302;4.634;2022-07-09T06:36:14;1.52;;;1.52;;
56653;SDS011;45096;52.302;4.634;2022-07-09T06:38:39;2.80;;;1.55;;
56653;SDS011;45096;52.302;4.634;2022-07-09T06:41:05;1.55;;;1.45;;
56653;SDS011;45096;52.302;4.634;2022-07-09T06:43:31;1.60;;;1.50;;
56653;SDS011;45096;52.302;4.634;2022-07-09T06:45:57;1.80;;;1.70;;
56653;SDS011;45096;52.302;4.634;2022-07-09T06:48:22;1.38;;;1.38;;
56653;SDS011;45096;52.302;4.634;2022-07-09T06:50:47;1.40;;;1.30;;
56653;SDS011;45096;52.302;4.634;2022-07-09T06:53:13;1.23;;;1.13;;
56653;SDS011;45096;52.302;4.634;2022-07-09T06:55:38;1.38;;;1.35;;
56653;SDS011;45096;52.302;4.634;2022-07-09T06:58:04;1.17;;;1.15;;
56653;SDS011;45096;52.302;4.634;2022-07-09T07:00:30;1.30;;;1.20;;
56653;SDS011;45096;52.302;4.634;2022-07-09T07:02:56;1.40;;;1.30;;
56653;SDS011;45096;52.302;4.634;2022-07-09T07:05:21;1.77;;;1.40;;
56653;SDS011;45096;52.302;4.634;2022-07-09T07:07:46;1.80;;;1.17;;
56653;SDS011;45096;52.302;4.634;2022-07-09T07:10:12;1.63;;;1.52;;
56653;SDS011;45096;52.302;4.634;2022-07-09T07:12:37;1.45;;;1.35;;
56653;SDS011;45096;52.302;4.634;2022-07-09T07:15:03;1.58;;;1.48;;
56653;SDS011;45096;52.302;4.634;2022-07-09T07:17:30;1.15;;;1.13;;
56653;SDS011;45096;52.302;4.634;2022-07-09T07:19:55;1.35;;;1.25;;
56653;SDS011;45096;52.302;4.634;2022-07-09T07:22:20;1.40;;;1.30;;
56653;SDS011;45096;52.302;4.634;2022-07-09T07:24:46;3.10;;;1.55;;
56653;SDS011;45096;52.302;4.634;2022-07-09T07:27:11;2.50;;;1.30;;
56653;SDS011;45096;52.302;4.634;2022-07-09T07:29:37;2.35;;;1.45;;
56653;SDS011;45096;52.302;4.634;2022-07-09T07:32:02;2.88;;;1.45;;
56653;SDS011;45096;52.302;4.634;2022-07-09T07:34:29;1.63;;;1.05;;
56653;SDS011;45096;52.302;4.634;2022-07-09T07:36:54;1.35;;;1.30;;
56653;SDS011;45096;52.302;4.634;2022-07-09T07:39:20;2.35;;;1.20;;
56653;SDS011;45096;52.302;4.634;2022-07-09T07:41:45;3.88;;;1.17;;
56653;SDS011;45096;52.302;4.634;2022-07-09T07:44:10;2.38;;;1.20;;
56653;SDS011;45096;52.302;4.634;2022-07-09T07:46:36;2.95;;;1.13;;
56653;SDS011;45096;52.302;4.634;2022-07-09T07:49:01;1.15;;;1.05;;
56653;SDS011;45096;52.302;4.634;2022-07-09T07:51:28;2.10;;;1.17;;
56653;SDS011;45096;52.302;4.634;2022-07-09T07:53:53;1.40;;;1.30;;
56653;SDS011;45096;52.302;4.634;2022-07-09T07:56:19;1.38;;;1.13;;
56653;SDS011;45096;52.302;4.634;2022-07-09T07:58:44;1.42;;;1.10;;
56653;SDS011;45096;52.302;4.634;2022-07-09T08:01:09;3.25;;;1.00;;
56653;SDS011;45096;52.302;4.634;2022-07-09T08:03:35;0.88;;;0.88;;
56653;SDS011;45096;52.302;4.634;2022-07-09T08:06:00;1.00;;;0.93;;
56653;SDS011;45096;52.302;4.634;2022-07-09T08:08:27;1.90;;;1.17;;
56653;SDS011;45096;52.302;4.634;2022-07-09T08:10:52;2.15;;;1.17;;
56653;SDS011;45096;52.302;4.634;2022-07-09T08:13:18;1.67;;;1.30;;
56653;SDS011;45096;52.302;4.634;2022-07-09T08:15:43;2.10;;;1.10;;
56653;SDS011;45096;52.302;4.634;2022-07-09T08:18:09;1.00;;;1.00;;
56653;SDS011;45096;52.302;4.634;2022-07-09T08:20:34;1.70;;;1.30;;
56653;SDS011;45096;52.302;4.634;2022-07-09T08:23:00;1.85;;;1.10;;
56653;SDS011;45096;52.302;4.634;2022-07-09T08:25:26;2.05;;;1.20;;
56653;SDS011;45096;52.302;4.634;2022-07-09T08:27:52;2.20;;;1.10;;
56653;SDS011;45096;52.302;4.634;2022-07-09T08:30:17;1.92;;;1.75;;
56653;SDS011;45096;52.302;4.634;2022-07-09T08:32:43;1.08;;;1.08;;
56653;SDS011;45096;52.302;4.634;2022-07-09T08:35:08;2.70;;;1.23;;
56653;SDS011;45096;52.302;4.634;2022-07-09T08:37:33;2.08;;;1.50;;
56653;SDS011;45096;52.302;4.634;2022-07-09T08:39:59;3.10;;;1.25;;
56653;SDS011;45096;52.302;4.634;2022-07-09T08:42:27;2.00;;;1.00;;
56653;SDS011;45096;52.302;4.634;2022-07-09T08:44:52;1.25;;;1.20;;
56653;SDS011;45096;52.302;4.634;2022-07-09T08:47:19;0.85;;;0.85;;
56653;SDS011;45096;52.302;4.634;2022-07-09T08:49:44;2.38;;;0.93;;
56653;SDS011;45096;52.302;4.634;2022-07-09T08:52:12;1.10;;;1.00;;
56653;SDS011;45096;52.302;4.634;2022-07-09T08:54:37;2.60;;;1.55;;
56653;SDS011;45096;52.302;4.634;2022-07-09T08:57:04;1.30;;;1.20;;
56653;SDS011;45096;52.302;4.634;2022-07-09T08:59:31;1.27;;;1.00;;
56653;SDS011;45096;52.302;4.634;2022-07-09T09:01:58;2.13;;;1.05;;
56653;SDS011;45096;52.302;4.634;2022-07-09T09:04:28;0.95;;;0.90;;
56653;SDS011;45096;52.302;4.634;2022-07-09T09:06:54;1.20;;;1.00;;
56653;SDS011;45096;52.302;4.634;2022-07-09T09:09:19;1.15;;;0.98;;
56653;SDS011;45096;52.302;4.634;2022-07-09T09:11:46;3.55;;;1.30;;
56653;SDS011;45096;52.302;4.634;2022-07-09T09:14:17;0.95;;;0.85;;
56653;SDS011;45096;52.302;4.634;2022-07-09T09:16:44;2.83;;;1.00;;
56653;SDS011;45096;52.302;4.634;2022-07-09T09:19:10;1.98;;;1.17;;
56653;SDS011;45096;52.302;4.634;2022-07-09T09:21:36;1.98;;;1.10;;
56653;SDS011;45096;52.302;4.634;2022-07-09T09:24:02;0.95;;;0.95;;
56653;SDS011;45096;52.302;4.634;2022-07-09T09:26:28;1.20;;;1.10;;
56653;SDS011;45096;52.302;4.634;2022-07-09T09:28:54;2.13;;;1.08;;
56653;SDS011;45096;52.302;4.634;2022-07-09T09:31:21;0.70;;;0.70;;
56653;SDS011;45096;52.302;4.634;2022-07-09T09:33:48;1.42;;;0.88;;
56653;SDS011;45096;52.302;4.634;2022-07-09T09:36:25;1.02;;;0.93;;
56653;SDS011;45096;52.302;4.634;2022-07-09T09:38:51;0.93;;;0.93;;
56653;SDS011;45096;52.302;4.634;2022-07-09T09:41:20;2.65;;;1.20;;
56653;SDS011;45096;52.302;4.634;2022-07-09T09:43:46;1.85;;;1.00;;
56653;SDS011;45096;52.302;4.634;2022-07-09T09:46:12;2.10;;;1.10;;
56653;SDS011;45096;52.302;4.634;2022-07-09T09:48:38;0.80;;;0.80;;
56653;SDS011;45096;52.302;4.634;2022-07-09T09:51:04;2.45;;;1.00;;
56653;SDS011;45096;52.302;4.634;2022-07-09T09:53:30;1.67;;;1.10;;
56653;SDS011;45096;52.302;4.634;2022-07-09T09:55:56;1.10;;;1.10;;
56653;SDS011;45096;52.302;4.634;2022-07-09T09:58:22;1.60;;;1.00;;
56653;SDS011;45096;52.302;4.634;2022-07-09T10:00:48;1.10;;;1.00;;
56653;SDS011;45096;52.302;4.634;2022-07-09T10:03:13;0.90;;;0.90;;
56653;SDS011;45096;52.302;4.634;2022-07-09T10:05:40;5.10;;;0.85;;
56653;SDS011;45096;52.302;4.634;2022-07-09T10:08:07;1.10;;;0.85;;
56653;SDS011;45096;52.302;4.634;2022-07-09T10:10:32;1.40;;;1.13;;
56653;SDS011;45096;52.302;4.634;2022-07-09T10:12:58;2.88;;;0.85;;
56653;SDS011;45096;52.302;4.634;2022-07-09T10:15:24;3.17;;;1.58;;
56653;SDS011;45096;52.302;4.634;2022-07-09T10:17:50;1.02;;;1.00;;
56653;SDS011;45096;52.302;4.634;2022-07-09T10:20:15;1.25;;;0.88;;
56653;SDS011;45096;52.302;4.634;2022-07-09T10:22:41;1.23;;;1.05;;
56653;SDS011;45096;52.302;4.634;2022-07-09T10:25:09;1.15;;;0.90;;
56653;SDS011;45096;52.302;4.634;2022-07-09T10:27:41;1.25;;;0.80;;
56653;SDS011;45096;52.302;4.634;2022-07-09T10:30:08;3.65;;;1.10;;
56653;SDS011;45096;52.302;4.634;2022-07-09T10:32:34;2.63;;;0.93;;
56653;SDS011;45096;52.302;4.634;2022-07-09T10:35:00;1.70;;;0.98;;
56653;SDS011;45096;52.302;4.634;2022-07-09T10:37:32;1.40;;;0.85;;
56653;SDS011;45096;52.302;4.634;2022-07-09T10:40:10;1.27;;;0.95;;
56653;SDS011;45096;52.302;4.634;2022-07-09T10:42:36;2.83;;;1.05;;
56653;SDS011;45096;52.302;4.634;2022-07-09T10:45:02;2.22;;;1.08;;
56653;SDS011;45096;52.302;4.634;2022-07-09T10:47:36;1.77;;;1.20;;
56653;SDS011;45096;52.302;4.634;2022-07-09T10:50:02;3.22;;;1.15;;
56653;SDS011;45096;52.302;4.634;2022-07-09T10:52:29;1.98;;;1.10;;
56653;SDS011;45096;52.302;4.634;2022-07-09T10:54:54;1.60;;;0.90;;
56653;SDS011;45096;52.302;4.634;2022-07-09T10:57:21;2.88;;;1.42;;
56653;SDS011;45096;52.302;4.634;2022-07-09T10:59:47;1.40;;;1.15;;
56653;SDS011;45096;52.302;4.634;2022-07-09T11:02:19;1.20;;;1.10;;
56653;SDS011;45096;52.302;4.634;2022-07-09T11:04:47;2.83;;;1.10;;
56653;SDS011;45096;52.302;4.634;2022-07-09T11:07:18;1.63;;;1.40;;
56653;SDS011;45096;52.302;4.634;2022-07-09T11:09:44;2.35;;;1.20;;
56653;SDS011;45096;52.302;4.634;2022-07-09T11:12:09;1.90;;;0.93;;
56653;SDS011;45096;52.302;4.634;2022-07-09T11:14:43;1.17;;;1.00;;
56653;SDS011;45096;52.302;4.634;2022-07-09T11:17:13;1.73;;;1.17;;
56653;SDS011;45096;52.302;4.634;2022-07-09T11:19:39;1.90;;;1.15;;
56653;SDS011;45096;52.302;4.634;2022-07-09T11:22:04;1.67;;;0.82;;
56653;SDS011;45096;52.302;4.634;2022-07-09T11:24:30;1.83;;;1.00;;
56653;SDS011;45096;52.302;4.634;2022-07-09T11:26:55;2.65;;;1.30;;
56653;SDS011;45096;52.302;4.634;2022-07-09T11:29:21;1.80;;;1.10;;
56653;SDS011;45096;52.302;4.634;2022-07-09T11:31:48;2.15;;;1.13;;
56653;SDS011;45096;52.302;4.634;2022-07-09T11:34:14;1.67;;;1.10;;
56653;SDS011;45096;52.302;4.634;2022-07-09T11:36:40;3.00;;;1.15;;
56653;SDS011;45096;52.302;4.634;2022-07-09T11:39:06;2.97;;;1.10;;
56653;SDS011;45096;52.302;4.634;2022-07-09T11:41:39;2.30;;;1.25;;
56653;SDS011;45096;52.302;4.634;2022-07-09T11:44:05;2.65;;;1.58;;
56653;SDS011;45096;52.302;4.634;2022-07-09T11:46:30;2.13;;;1.20;;
56653;SDS011;45096;52.302;4.634;2022-07-09T11:48:57;1.58;;;1.10;;
56653;SDS011;45096;52.302;4.634;2022-07-09T11:51:28;2.38;;;1.55;;
56653;SDS011;45096;52.302;4.634;2022-07-09T11:53:55;2.92;;;1.00;;
56653;SDS011;45096;52.302;4.634;2022-07-09T11:56:21;5.38;;;2.58;;
56653;SDS011;45096;52.302;4.634;2022-07-09T11:58:48;1.30;;;1.15;;
56653;SDS011;45096;52.302;4.634;2022-07-09T12:01:14;3.20;;;1.20;;
56653;SDS011;45096;52.302;4.634;2022-07-09T12:03:45;2.63;;;1.05;;
56653;SDS011;45096;52.302;4.634;2022-07-09T12:06:13;3.80;;;1.38;;
56653;SDS011;45096;52.302;4.634;2022-07-09T12:08:38;10.48;;;1.50;;
56653;SDS011;45096;52.302;4.634;2022-07-09T12:11:03;3.08;;;1.00;;
56653;SDS011;45096;52.302;4.634;2022-07-09T12:13:29;1.13;;;1.02;;
56653;SDS011;45096;52.302;4.634;2022-07-09T12:15:54;2.70;;;1.30;;
56653;SDS011;45096;52.302;4.634;2022-07-09T12:18:20;3.50;;;1.50;;
56653;SDS011;45096;52.302;4.634;2022-07-09T12:20:45;2.78;;;1.38;;
56653;SDS011;45096;52.302;4.634;2022-07-09T12:23:12;2.80;;;1.90;;
56653;SDS011;45096;52.302;4.634;2022-07-09T12:25:38;4.45;;;1.40;;
56653;SDS011;45096;52.302;4.634;2022-07-09T12:28:04;1.67;;;1.10;;
56653;SDS011;45096;52.302;4.634;2022-07-09T12:30:29;1.60;;;1.02;;
56653;SDS011;45096;52.302;4.634;2022-07-09T12:32:55;2.35;;;1.38;;
56653;SDS011;45096;52.302;4.634;2022-07-09T12:35:20;3.65;;;1.48;;
56653;SDS011;45096;52.302;4.634;2022-07-09T12:37:46;4.45;;;1.90;;
56653;SDS011;45096;52.302;4.634;2022-07-09T12:40:13;3.50;;;1.80;;
56653;SDS011;45096;52.302;4.634;2022-07-09T12:42:38;4.55;;;1.48;;
56653;SDS011;45096;52.302;4.634;2022-07-09T12:45:04;3.25;;;1.48;;
56653;SDS011;45096;52.302;4.634;2022-07-09T12:47:30;3.28;;;1.25;;
56653;SDS011;45096;52.302;4.634;2022-07-09T12:49:56;3.33;;;1.00;;
56653;SDS011;45096;52.302;4.634;2022-07-09T12:52:21;3.33;;;1.60;;
56653;SDS011;45096;52.302;4.634;2022-07-09T12:54:46;2.45;;;1.40;;
56653;SDS011;45096;52.302;4.634;2022-07-09T12:57:13;1.52;;;1.15;;
56653;SDS011;45096;52.302;4.634;2022-07-09T12:59:38;1.50;;;1.20;;
56653;SDS011;45096;52.302;4.634;2022-07-09T13:02:04;3.03;;;1.85;;
56653;SDS011;45096;52.302;4.634;2022-07-09T13:04:30;3.40;;;1.45;;
56653;SDS011;45096;52.302;4.634;2022-07-09T13:06:55;2.42;;;1.30;;
56653;SDS011;45096;52.302;4.634;2022-07-09T13:09:21;3.13;;;1.40;;
56653;SDS011;45096;52.302;4.634;2022-07-09T13:11:46;5.40;;;1.67;;
56653;SDS011;45096;52.302;4.634;2022-07-09T13:14:13;3.97;;;1.60;;
56653;SDS011;45096;52.302;4.634;2022-07-09T13:16:38;3.30;;;1.40;;
56653;SDS011;45096;52.302;4.634;2022-07-09T13:19:03;2.25;;;1.33;;
56653;SDS011;45096;52.302;4.634;2022-07-09T13:21:29;3.97;;;1.70;;
56653;SDS011;45096;52.302;4.634;2022-07-09T13:23:54;4.22;;;1.58;;
56653;SDS011;45096;52.302;4.634;2022-07-09T13:26:20;3.60;;;1.92;;
56653;SDS011;45096;52.302;4.634;2022-07-09T13:28:45;3.10;;;1.42;;
56653;SDS011;45096;52.302;4.634;2022-07-09T13:31:12;1.50;;;1.40;;
56653;SDS011;45096;52.302;4.634;2022-07-09T13:33:37;4.53;;;1.50;;
56653;SDS011;45096;52.302;4.634;2022-07-09T13:36:03;3.80;;;1.50;;
56653;SDS011;45096;52.302;4.634;2022-07-09T13:38:29;3.15;;;1.20;;
56653;SDS011;45096;52.302;4.634;2022-07-09T13:40:55;7.70;;;1.77;;
56653;SDS011;45096;52.302;4.634;2022-07-09T13:43:20;1.95;;;1.20;;
56653;SDS011;45096;52.302;4.634;2022-07-09T13:45:46;4.20;;;1.10;;
56653;SDS011;45096;52.302;4.634;2022-07-09T13:48:13;3.25;;;1.95;;
56653;SDS011;45096;52.302;4.634;2022-07-09T13:50:38;2.22;;;1.20;;
56653;SDS011;45096;52.302;4.634;2022-07-09T13:53:03;5.13;;;2.10;;
56653;SDS011;45096;52.302;4.634;2022-07-09T13:55:29;4.93;;;1.75;;
56653;SDS011;45096;52.302;4.634;2022-07-09T13:57:54;3.20;;;1.48;;
56653;SDS011;45096;52.302;4.634;2022-07-09T14:00:20;2.67;;;1.48;;
56653;SDS011;45096;52.302;4.634;2022-07-09T14:02:45;4.30;;;1.27;;
56653;SDS011;45096;52.302;4.634;2022-07-09T14:05:12;4.20;;;1.58;;
56653;SDS011;45096;52.302;4.634;2022-07-09T14:07:37;4.40;;;1.42;;
56653;SDS011;45096;52.302;4.634;2022-07-09T14:10:03;3.47;;;1.55;;
56653;SDS011;45096;52.302;4.634;2022-07-09T14:12:29;3.78;;;1.50;;
56653;SDS011;45096;52.302;4.634;2022-07-09T14:14:54;5.32;;;1.80;;
56653;SDS011;45096;52.302;4.634;2022-07-09T14:17:20;4.82;;;1.40;;
56653;SDS011;45096;52.302;4.634;2022-07-09T14:19:45;5.25;;;1.65;;
56653;SDS011;45096;52.302;4.634;2022-07-09T14:22:12;3.72;;;1.60;;
56653;SDS011;45096;52.302;4.634;2022-07-09T14:24:37;1.90;;;1.20;;
56653;SDS011;45096;52.302;4.634;2022-07-09T14:27:03;3.35;;;1.42;;
56653;SDS011;45096;52.302;4.634;2022-07-09T14:29:29;3.78;;;1.70;;
56653;SDS011;45096;52.302;4.634;2022-07-09T14:31:54;2.88;;;1.63;;
56653;SDS011;45096;52.302;4.634;2022-07-09T14:34:20;3.33;;;1.65;;
56653;SDS011;45096;52.302;4.634;2022-07-09T14:36:45;2.63;;;1.50;;
56653;SDS011;45096;52.302;4.634;2022-07-09T14:39:12;3.30;;;1.58;;